createdAt,value
2022-09-30T00:01:41.831Z,8.30
2022-09-30T00:04:29.773Z,8.10
2022-09-30T00:07:18.979Z,8.00
2022-09-30T00:10:07.648Z,8.00
2022-09-30T00:12:55.502Z,8.00
2022-09-30T00:15:47.534Z,8.00
2022-09-30T00:18:35.452Z,8.00
2022-09-30T00:21:23.552Z,8.00
2022-09-30T00:24:12.815Z,7.90
2022-09-30T00:27:00.719Z,7.90
2022-09-30T00:29:48.748Z,7.80
2022-09-30T00:32:36.748Z,7.80
2022-09-30T00:35:25.445Z,7.80
2022-09-30T00:38:13.297Z,7.80
2022-09-30T00:41:03.483Z,7.70
2022-09-30T00:43:53.529Z,7.60
2022-09-30T00:46:44.831Z,7.40
2022-09-30T00:49:33.028Z,7.40
2022-09-30T00:52:20.951Z,7.30
2022-09-30T00:55:11.116Z,7.30
2022-09-30T00:58:02.866Z,7.30
2022-09-30T01:00:51.969Z,7.40
2022-09-30T01:03:42.241Z,7.40
2022-09-30T01:06:30.271Z,7.40
2022-09-30T01:09:18.826Z,7.40
2022-09-30T01:12:07.391Z,7.60
2022-09-30T01:14:58.137Z,7.60
2022-09-30T01:17:50.442Z,7.60
2022-09-30T01:20:48.486Z,7.50
2022-09-30T01:23:58.020Z,7.40
2022-09-30T01:26:50.591Z,7.40
2022-09-30T01:30:04.641Z,7.30
2022-09-30T01:33:04.856Z,7.30
2022-09-30T01:36:06.224Z,7.20
2022-09-30T01:38:56.763Z,7.10
2022-09-30T01:41:46.849Z,7.10
2022-09-30T01:44:36.424Z,7.10
2022-09-30T01:47:26.448Z,7.10
2022-09-30T01:50:18.617Z,7.00
2022-09-30T01:53:09.492Z,7.00
2022-09-30T01:56:00.503Z,6.90
2022-09-30T01:58:53.182Z,6.90
2022-09-30T02:01:46.810Z,6.90
2022-09-30T02:04:37.099Z,6.90
2022-09-30T02:07:27.805Z,6.90
2022-09-30T02:10:17.768Z,6.80
2022-09-30T02:13:08.398Z,6.80
2022-09-30T02:15:58.157Z,6.80
2022-09-30T02:18:48.765Z,6.80
2022-09-30T02:21:39.534Z,6.90
2022-09-30T02:24:32.118Z,6.90
2022-09-30T02:27:22.223Z,6.60
2022-09-30T02:30:11.889Z,6.70
2022-09-30T02:33:01.520Z,6.70
2022-09-30T02:35:51.529Z,6.60
2022-09-30T02:38:42.278Z,6.60
2022-09-30T02:41:34.551Z,6.60
2022-09-30T02:44:22.512Z,6.50
2022-09-30T02:47:13.956Z,6.50
2022-09-30T02:50:03.192Z,6.40
2022-09-30T02:52:57.131Z,6.40
2022-09-30T02:55:52.786Z,6.30
2022-09-30T02:58:43.438Z,6.20
2022-09-30T03:01:32.151Z,6.20
2022-09-30T03:04:21.951Z,6.30
2022-09-30T03:07:10.632Z,6.30
2022-09-30T03:09:59.151Z,6.30
2022-09-30T03:12:58.218Z,6.40
2022-09-30T03:15:55.296Z,6.60
2022-09-30T03:18:52.849Z,6.60
2022-09-30T03:21:47.522Z,6.50
2022-09-30T03:24:47.152Z,6.60
2022-09-30T03:27:37.964Z,6.60
2022-09-30T03:30:27.004Z,6.70
2022-09-30T03:33:20.114Z,6.60
2022-09-30T03:36:09.895Z,6.60
2022-09-30T03:39:02.082Z,6.70
2022-09-30T03:41:54.001Z,6.60
2022-09-30T03:44:43.261Z,6.60
2022-09-30T03:47:32.495Z,6.80
2022-09-30T03:50:22.898Z,6.60
2022-09-30T03:53:12.827Z,6.50
2022-09-30T03:56:00.695Z,6.40
2022-09-30T03:58:48.676Z,6.40
2022-09-30T04:01:36.572Z,6.60
2022-09-30T04:04:24.651Z,6.50
2022-09-30T04:07:14.230Z,6.40
2022-09-30T04:10:02.445Z,6.50
2022-09-30T04:12:50.281Z,6.30
2022-09-30T04:15:38.175Z,6.20
2022-09-30T04:18:26.064Z,6.20
2022-09-30T04:21:14.782Z,6.10
2022-09-30T04:24:04.278Z,6.00
2022-09-30T04:26:52.212Z,5.90
2022-09-30T04:29:40.102Z,5.90
2022-09-30T04:32:28.866Z,5.90
2022-09-30T04:35:17.215Z,5.80
2022-09-30T04:38:07.271Z,5.70
2022-09-30T04:40:56.978Z,5.60
2022-09-30T04:43:46.887Z,5.90
2022-09-30T04:46:36.753Z,6.20
2022-09-30T04:49:24.843Z,6.20
2022-09-30T04:52:13.237Z,6.20
2022-09-30T04:55:01.143Z,6.00
2022-09-30T04:57:50.496Z,5.90
2022-09-30T05:00:38.549Z,5.70
2022-09-30T05:03:26.443Z,5.60
2022-09-30T05:06:16.655Z,5.60
2022-09-30T05:09:04.859Z,5.60
2022-09-30T05:11:53.259Z,5.70
2022-09-30T05:14:42.720Z,5.70
2022-09-30T05:17:31.266Z,5.60
2022-09-30T05:20:21.374Z,5.50
2022-09-30T05:23:09.490Z,5.40
2022-09-30T05:25:57.654Z,5.40
2022-09-30T05:28:45.506Z,5.40
2022-09-30T05:31:34.921Z,5.30
2022-09-30T05:34:22.976Z,5.40
2022-09-30T05:37:10.973Z,5.50
2022-09-30T05:39:59.274Z,5.50
2022-09-30T05:42:47.461Z,5.60
2022-09-30T05:45:35.444Z,5.70
2022-09-30T05:48:25.638Z,5.90
2022-09-30T05:51:13.842Z,5.90
2022-09-30T05:54:01.770Z,5.90
2022-09-30T05:56:49.650Z,5.90
2022-09-30T05:59:37.889Z,5.90
2022-09-30T06:02:26.018Z,5.90
2022-09-30T06:05:15.366Z,6.00
2022-09-30T06:08:03.628Z,6.20
2022-09-30T06:10:51.665Z,6.40
2022-09-30T06:13:40.249Z,6.70
2022-09-30T06:16:28.390Z,6.80
2022-09-30T06:19:16.459Z,6.60
2022-09-30T06:22:05.941Z,6.60
2022-09-30T06:24:55.480Z,6.70
2022-09-30T06:27:47.053Z,6.80
2022-09-30T06:30:35.597Z,6.80
2022-09-30T06:33:23.939Z,6.80
2022-09-30T06:36:12.068Z,6.70
2022-09-30T06:39:02.235Z,6.70
2022-09-30T06:41:50.265Z,6.80
2022-09-30T06:44:48.195Z,7.40
2022-09-30T06:47:41.904Z,7.40
2022-09-30T06:50:30.686Z,7.40
2022-09-30T06:53:18.577Z,7.50
2022-09-30T06:56:08.242Z,7.50
2022-09-30T06:58:57.124Z,7.40
2022-09-30T07:01:45.514Z,7.60
2022-09-30T07:04:33.461Z,7.60
2022-09-30T07:07:22.204Z,7.60
2022-09-30T07:10:10.876Z,7.60
2022-09-30T07:13:02.458Z,7.70
2022-09-30T07:15:51.266Z,7.70
2022-09-30T07:18:39.623Z,7.80
2022-09-30T07:21:27.560Z,7.80
2022-09-30T07:24:15.456Z,7.80
2022-09-30T07:27:03.363Z,7.90
2022-09-30T07:30:10.459Z,7.90
2022-09-30T07:33:00.524Z,8.00
2022-09-30T07:35:52.281Z,8.10
2022-09-30T07:38:42.405Z,8.20
2022-09-30T07:41:30.444Z,8.40
2022-09-30T07:44:18.362Z,8.50
2022-09-30T07:47:07.610Z,8.60
2022-09-30T07:49:55.671Z,8.70
2022-09-30T07:52:43.595Z,8.80
2022-09-30T07:55:31.647Z,8.90
2022-09-30T07:58:19.747Z,9.10
2022-09-30T08:01:08.147Z,9.20
2022-09-30T08:03:58.523Z,9.20
2022-09-30T08:06:47.651Z,9.30
2022-09-30T08:09:35.927Z,9.40
2022-09-30T08:12:23.881Z,9.40
2022-09-30T08:15:11.932Z,9.60
2022-09-30T08:17:59.819Z,9.60
2022-09-30T08:20:49.070Z,9.70
2022-09-30T08:23:36.953Z,9.80
2022-09-30T08:26:25.163Z,9.90
2022-09-30T08:29:20.357Z,10.00
2022-09-30T08:32:13.172Z,10.10
2022-09-30T08:35:01.112Z,10.10
2022-09-30T08:37:51.577Z,10.20
2022-09-30T08:40:47.736Z,10.20
2022-09-30T08:43:41.293Z,10.30
2022-09-30T08:46:34.033Z,10.40
2022-09-30T08:49:33.914Z,10.50
2022-09-30T08:52:30.710Z,10.60
2022-09-30T08:55:27.796Z,10.70
2022-09-30T08:58:17.624Z,10.80
2022-09-30T09:01:07.966Z,11.00
2022-09-30T09:03:56.094Z,11.00
2022-09-30T09:06:52.748Z,11.10
2022-09-30T09:09:45.754Z,11.10
2022-09-30T09:12:43.613Z,11.20
2022-09-30T09:15:36.429Z,11.30
2022-09-30T09:18:35.263Z,11.40
2022-09-30T09:21:25.026Z,11.60
2022-09-30T09:24:15.876Z,11.60
2022-09-30T09:27:13.687Z,11.70
2022-09-30T09:30:07.650Z,11.80
2022-09-30T09:32:57.202Z,12.00
2022-09-30T09:35:49.615Z,12.00
2022-09-30T09:38:42.546Z,12.10
2022-09-30T09:41:34.432Z,12.20
2022-09-30T09:44:25.914Z,12.30
2022-09-30T09:47:17.041Z,12.50
2022-09-30T09:50:05.979Z,12.50
2022-09-30T09:53:01.062Z,12.60
2022-09-30T09:55:49.532Z,12.70
2022-09-30T09:58:37.481Z,12.80
2022-09-30T10:01:33.366Z,12.90
2022-09-30T10:04:26.274Z,13.00
2022-09-30T10:07:15.921Z,13.20
2022-09-30T10:10:08.640Z,13.20
2022-09-30T10:12:57.240Z,13.30
2022-09-30T10:15:45.312Z,13.40
2022-09-30T10:18:33.856Z,13.60
2022-09-30T10:21:23.882Z,13.70
2022-09-30T10:24:19.766Z,13.80
2022-09-30T10:27:26.944Z,13.90
2022-09-30T10:30:14.879Z,14.00
2022-09-30T10:33:04.373Z,14.10
2022-09-30T10:36:02.555Z,14.20
2022-09-30T10:38:56.253Z,14.30
2022-09-30T10:41:44.197Z,14.30
2022-09-30T10:44:32.179Z,14.50
2022-09-30T10:47:21.764Z,14.50
2022-09-30T10:50:12.966Z,14.60
2022-09-30T10:53:02.725Z,14.70
2022-09-30T10:55:54.214Z,14.80
2022-09-30T10:58:45.347Z,14.90
2022-09-30T11:01:36.361Z,15.00
2022-09-30T11:04:27.322Z,15.00
2022-09-30T11:07:18.115Z,15.10
2022-09-30T11:10:08.752Z,15.30
2022-09-30T11:13:03.040Z,15.40
2022-09-30T11:15:57.329Z,15.50
2022-09-30T11:18:46.250Z,15.60
2022-09-30T11:21:36.499Z,15.80
2022-09-30T11:24:29.661Z,15.90
2022-09-30T11:27:20.427Z,16.00
2022-09-30T11:30:13.436Z,16.20
2022-09-30T11:33:07.409Z,16.20
2022-09-30T11:35:57.508Z,16.30
2022-09-30T11:39:02.234Z,16.50
2022-09-30T11:41:53.026Z,16.60
2022-09-30T11:44:43.689Z,16.70
2022-09-30T11:47:41.925Z,16.80
2022-09-30T11:50:33.715Z,16.90
2022-09-30T11:53:26.017Z,17.10
2022-09-30T11:56:20.478Z,17.20
2022-09-30T11:59:14.495Z,17.30
2022-09-30T12:02:05.108Z,17.40
2022-09-30T12:04:57.879Z,17.50
2022-09-30T12:07:47.168Z,17.60
2022-09-30T12:10:36.076Z,17.60
2022-09-30T12:13:26.688Z,17.70
2022-09-30T12:16:17.410Z,17.80
2022-09-30T12:19:13.318Z,17.90
2022-09-30T12:22:05.138Z,18.10
2022-09-30T12:24:53.091Z,18.20
2022-09-30T12:27:44.123Z,18.30
2022-09-30T12:30:31.368Z,18.40
2022-09-30T12:33:34.183Z,18.50
2022-09-30T12:36:27.588Z,18.60
2022-09-30T12:39:35.681Z,18.60
2022-09-30T12:42:42.175Z,18.40
2022-09-30T12:45:55.087Z,18.40
2022-09-30T12:48:45.647Z,18.50
2022-09-30T12:51:35.004Z,18.60
2022-09-30T12:54:25.570Z,18.80
2022-09-30T12:57:19.642Z,18.80
2022-09-30T13:00:14.819Z,18.90
2022-09-30T13:03:05.265Z,18.90
2022-09-30T13:05:54.475Z,18.90
2022-09-30T13:08:44.127Z,18.90
2022-09-30T13:11:37.309Z,19.00
2022-09-30T13:14:33.676Z,18.70
2022-09-30T13:17:27.016Z,18.40
2022-09-30T13:20:33.755Z,18.20
2022-09-30T13:23:36.352Z,17.80
2022-09-30T13:26:42.215Z,17.80
2022-09-30T13:29:40.328Z,17.60
2022-09-30T13:32:32.748Z,17.70
2022-09-30T13:35:31.683Z,17.80
2022-09-30T13:38:20.399Z,18.00
2022-09-30T13:41:19.588Z,18.20
2022-09-30T13:44:10.278Z,18.30
2022-09-30T13:47:01.782Z,18.40
2022-09-30T13:49:53.404Z,18.40
2022-09-30T13:52:42.751Z,18.40
2022-09-30T13:55:34.669Z,18.40
2022-09-30T13:58:36.240Z,18.50
2022-09-30T14:01:28.849Z,18.50
2022-09-30T14:04:27.011Z,18.50
2022-09-30T14:07:18.332Z,18.50
2022-09-30T14:10:15.997Z,18.40
2022-09-30T14:13:11.396Z,18.50
2022-09-30T14:16:06.939Z,18.70
2022-09-30T14:19:13.926Z,18.90
2022-09-30T14:22:05.631Z,18.90
2022-09-30T14:24:53.824Z,19.10
2022-09-30T14:27:49.412Z,19.20
2022-09-30T14:30:40.320Z,19.10
2022-09-30T14:33:31.439Z,19.00
2022-09-30T14:36:21.785Z,18.80
2022-09-30T14:39:15.601Z,18.60
2022-09-30T14:42:03.674Z,18.50
2022-09-30T14:44:52.095Z,18.60
2022-09-30T14:47:40.668Z,18.70
2022-09-30T14:50:31.206Z,18.90
2022-09-30T14:53:26.387Z,19.10
2022-09-30T14:56:20.805Z,19.20
2022-09-30T14:59:16.239Z,19.30
2022-09-30T15:02:12.222Z,19.50
2022-09-30T15:05:01.695Z,19.60
2022-09-30T15:07:49.788Z,19.70
2022-09-30T15:10:38.051Z,19.70
2022-09-30T15:13:28.759Z,19.70
2022-09-30T15:16:26.788Z,19.60
2022-09-30T15:19:18.444Z,19.40
2022-09-30T15:22:09.475Z,19.40
2022-09-30T15:25:02.707Z,19.30
2022-09-30T15:28:35.540Z,19.20
2022-09-30T15:31:36.009Z,19.20
2022-09-30T15:34:24.356Z,19.10
2022-09-30T15:37:17.190Z,19.10
2022-09-30T15:40:22.611Z,19.00
2022-09-30T15:43:11.304Z,18.90
2022-09-30T15:46:01.764Z,18.80
2022-09-30T15:48:50.806Z,18.80
2022-09-30T15:51:40.059Z,18.80
2022-09-30T15:54:31.798Z,18.90
2022-09-30T15:57:34.426Z,18.80
2022-09-30T16:00:35.316Z,18.80
2022-09-30T16:03:26.101Z,18.70
2022-09-30T16:06:16.666Z,18.60
2022-09-30T16:09:08.337Z,18.50
2022-09-30T16:12:08.679Z,18.40
2022-09-30T16:14:58.076Z,18.30
2022-09-30T16:17:46.739Z,18.20
2022-09-30T16:20:34.538Z,18.10
2022-09-30T16:23:29.694Z,18.00
2022-09-30T16:26:24.317Z,17.90
2022-09-30T16:29:15.781Z,17.80
2022-09-30T16:32:05.968Z,17.70
2022-09-30T16:34:53.930Z,17.60
2022-09-30T16:37:43.022Z,17.40
2022-09-30T16:40:33.017Z,17.20
2022-09-30T16:43:21.805Z,17.10
2022-09-30T16:46:09.745Z,17.00
2022-09-30T16:48:57.484Z,16.90
2022-09-30T16:51:45.254Z,16.80
2022-09-30T16:54:32.959Z,16.70
2022-09-30T16:57:22.042Z,16.60
2022-09-30T17:00:12.193Z,16.30
2022-09-30T17:03:00.149Z,16.20
2022-09-30T17:05:53.210Z,16.10
2022-09-30T17:08:41.356Z,16.00
2022-09-30T17:11:31.072Z,15.90
2022-09-30T17:14:20.370Z,15.80
2022-09-30T17:17:13.040Z,15.80
2022-09-30T17:20:01.425Z,15.80
2022-09-30T17:22:49.501Z,15.70
2022-09-30T17:25:40.818Z,15.50
2022-09-30T17:28:28.586Z,15.50
2022-09-30T17:31:17.681Z,15.40
2022-09-30T17:34:07.967Z,15.30
2022-09-30T17:36:56.117Z,15.10
2022-09-30T17:39:43.919Z,15.00
2022-09-30T17:42:49.262Z,14.90
2022-09-30T17:45:37.478Z,14.80
2022-09-30T17:48:26.634Z,14.80
2022-09-30T17:51:14.773Z,14.70
2022-09-30T17:54:02.493Z,14.70
2022-09-30T17:56:50.277Z,14.60
2022-09-30T17:59:37.968Z,14.60
2022-09-30T18:02:25.767Z,14.60
2022-09-30T18:05:15.573Z,14.60
2022-09-30T18:08:03.279Z,14.50
2022-09-30T18:10:51.991Z,14.50
2022-09-30T18:13:41.779Z,14.40
2022-09-30T18:16:30.972Z,14.30
2022-09-30T18:19:19.034Z,14.20
2022-09-30T18:22:08.119Z,14.10
2022-09-30T18:25:13.604Z,14.10
2022-09-30T18:28:01.646Z,14.10
2022-09-30T18:30:49.453Z,14.00
2022-09-30T18:33:37.410Z,14.00
2022-09-30T18:36:26.213Z,14.00
2022-09-30T18:39:15.263Z,14.00
2022-09-30T18:42:03.451Z,13.90
2022-09-30T18:44:55.095Z,13.80
2022-09-30T18:47:49.891Z,13.70
2022-09-30T18:50:54.455Z,13.60
2022-09-30T18:53:42.159Z,13.60
2022-09-30T18:56:32.474Z,13.60
2022-09-30T18:59:23.277Z,13.60
2022-09-30T19:02:14.658Z,13.50
2022-09-30T19:05:02.484Z,13.50
2022-09-30T19:07:50.227Z,13.30
2022-09-30T19:10:39.756Z,13.40
2022-09-30T19:13:28.806Z,13.40
2022-09-30T19:16:19.526Z,13.30
2022-09-30T19:19:08.100Z,13.20
2022-09-30T19:22:00.191Z,13.20
2022-09-30T19:24:48.014Z,13.30
2022-09-30T19:27:38.298Z,13.10
2022-09-30T19:30:27.713Z,13.10
2022-09-30T19:33:16.666Z,13.00
2022-09-30T19:36:14.398Z,13.00
2022-09-30T19:39:11.576Z,12.90
2022-09-30T19:42:04.106Z,12.90
2022-09-30T19:44:52.046Z,12.90
2022-09-30T19:47:41.493Z,12.80
2022-09-30T19:50:30.023Z,12.80
2022-09-30T19:53:27.696Z,12.80
2022-09-30T19:56:19.024Z,12.80
2022-09-30T19:59:07.226Z,12.70
2022-09-30T20:01:55.073Z,12.70
2022-09-30T20:04:45.496Z,12.70
2022-09-30T20:07:34.156Z,12.70
2022-09-30T20:10:23.985Z,12.70
2022-09-30T20:13:11.752Z,12.70
2022-09-30T20:15:59.502Z,12.70
2022-09-30T20:18:47.252Z,12.60
2022-09-30T20:21:37.892Z,12.60
2022-09-30T20:24:25.964Z,12.50
2022-09-30T20:27:13.750Z,12.50
2022-09-30T20:30:01.496Z,12.40
2022-09-30T20:32:49.230Z,12.40
2022-09-30T20:35:37.010Z,12.30
2022-09-30T20:38:26.076Z,12.30
2022-09-30T20:41:13.775Z,12.20
2022-09-30T20:44:02.987Z,12.30
2022-09-30T20:46:50.712Z,12.30
2022-09-30T20:49:38.449Z,12.30
2022-09-30T20:52:26.275Z,12.20
2022-09-30T20:55:15.399Z,12.20
2022-09-30T20:58:03.112Z,12.20
2022-09-30T21:00:51.203Z,12.10
2022-09-30T21:03:39.873Z,12.00
2022-09-30T21:06:28.439Z,12.00
2022-09-30T21:09:16.998Z,11.90
2022-09-30T21:12:08.610Z,11.90
2022-09-30T21:15:00.204Z,11.90
2022-09-30T21:17:47.902Z,11.80
2022-09-30T21:20:35.866Z,11.80
2022-09-30T21:23:23.611Z,11.80
2022-09-30T21:26:12.316Z,11.80
2022-09-30T21:29:02.169Z,11.80
2022-09-30T21:31:49.895Z,11.70
2022-09-30T21:34:38.663Z,11.60
2022-09-30T21:37:26.422Z,11.70
2022-09-30T21:40:14.108Z,11.60
2022-09-30T21:43:01.848Z,11.60
2022-09-30T21:45:57.017Z,11.50
2022-09-30T21:48:45.443Z,11.50
2022-09-30T21:51:34.594Z,11.40
2022-09-30T21:54:23.305Z,11.40
2022-09-30T21:57:11.298Z,11.40
2022-09-30T21:59:59.010Z,11.40
2022-09-30T22:02:48.104Z,11.40
2022-09-30T22:05:36.229Z,11.40
2022-09-30T22:08:24.362Z,11.40
2022-09-30T22:11:12.509Z,11.30
2022-09-30T22:14:00.482Z,11.30
2022-09-30T22:16:48.258Z,11.30
2022-09-30T22:19:37.921Z,11.30
2022-09-30T22:22:26.210Z,11.30
2022-09-30T22:25:14.083Z,11.30
2022-09-30T22:28:02.048Z,11.20
2022-09-30T22:30:49.770Z,11.20
2022-09-30T22:33:55.225Z,11.20
2022-09-30T22:37:01.837Z,11.10
2022-09-30T22:39:49.556Z,11.10
2022-09-30T22:42:37.780Z,11.20
2022-09-30T22:45:25.763Z,11.10
2022-09-30T22:48:13.454Z,11.00
2022-09-30T22:51:01.346Z,11.00
2022-09-30T22:53:50.420Z,11.00
2022-09-30T22:56:38.119Z,10.90
2022-09-30T22:59:26.546Z,10.90
2022-09-30T23:02:15.243Z,10.90
2022-09-30T23:05:03.056Z,10.90
2022-09-30T23:07:53.287Z,10.80
2022-09-30T23:10:48.037Z,10.80
2022-09-30T23:13:35.945Z,10.80
2022-09-30T23:16:23.676Z,10.90
2022-09-30T23:19:11.451Z,10.90
2022-09-30T23:21:59.170Z,10.90
2022-09-30T23:24:46.879Z,10.90
2022-09-30T23:27:36.489Z,10.90
2022-09-30T23:30:24.666Z,10.90
2022-09-30T23:33:12.580Z,10.90
2022-09-30T23:36:00.831Z,10.90
2022-09-30T23:38:48.570Z,10.90
2022-09-30T23:41:36.737Z,10.80
2022-09-30T23:44:28.522Z,10.80
2022-09-30T23:47:19.210Z,10.80
2022-09-30T23:50:07.401Z,10.80
2022-09-30T23:52:55.148Z,10.80
2022-09-30T23:55:42.881Z,10.80
2022-09-30T23:58:31.110Z,10.70
